Time;durP1;ratioP1;P1;durP2;ratioP2;P2;SDS_P1;SDS_P2;PMS_P1;PMS_P2;Temp;Humidity;BMP_temperature;BMP_pressure;BME280_temperature;BME280_humidity;BME280_pressure;Samples;Min_cycle;Max_cycle;Signal;HPM_P1;HPM_P2
2023/03/31 00:00:40;;;;;;;6.67;4.30;;;6.80;85.70;;;;;;4145621;28;20046;-61
2023/03/31 00:02:41;;;;;;;6.23;4.67;;;6.80;86.00;;;;;;4145074;28;20490;-62
2023/03/31 00:04:51;;;;;;;9.40;4.77;;;6.80;85.80;;;;;;4146008;28;20056;-63
2023/03/31 00:06:53;;;;;;;7.60;4.23;;;6.80;86.40;;;;;;4144827;28;20100;-63
2023/03/31 00:08:54;;;;;;;10.80;5.37;;;6.80;86.40;;;;;;4145129;28;20572;-64
2023/03/31 00:10:59;;;;;;;7.50;4.60;;;6.80;86.70;;;;;;4159647;28;20506;-63
2023/03/31 00:13:00;;;;;;;5.87;3.83;;;6.80;87.00;;;;;;4161428;28;20037;-63
2023/03/31 00:15:02;;;;;;;7.70;4.40;;;6.70;86.60;;;;;;4156713;28;20034;-61
2023/03/31 00:17:03;;;;;;;9.67;4.40;;;6.70;87.20;;;;;;4160299;28;20041;-64
2023/03/31 00:19:05;;;;;;;8.60;4.67;;;6.70;88.20;;;;;;4161682;28;20087;-66
2023/03/31 00:21:13;;;;;;;8.17;4.23;;;6.70;88.40;;;;;;4161952;28;20022;-62
2023/03/31 00:23:14;;;;;;;7.97;4.77;;;6.70;88.80;;;;;;4161614;28;20021;-62
2023/03/31 00:25:16;;;;;;;8.63;4.50;;;6.70;88.50;;;;;;4160621;28;20060;-63
2023/03/31 00:27:17;;;;;;;7.13;4.30;;;6.60;88.40;;;;;;4161651;28;20042;-65
2023/03/31 00:29:18;;;;;;;7.87;4.27;;;6.70;89.20;;;;;;4160486;28;20033;-63
2023/03/31 00:31:21;;;;;;;7.70;3.97;;;6.60;89.80;;;;;;4159460;28;20033;-62
2023/03/31 00:33:22;;;;;;;9.00;4.67;;;6.60;90.00;;;;;;4162095;28;20025;-66
2023/03/31 00:35:23;;;;;;;10.53;4.80;;;6.60;90.50;;;;;;4161502;28;20550;-62
2023/03/31 00:37:24;;;;;;;7.43;4.20;;;6.50;90.70;;;;;;4161637;28;20030;-62
2023/03/31 00:39:30;;;;;;;8.67;4.80;;;6.50;91.00;;;;;;4160514;28;20485;-61
2023/03/31 00:41:31;;;;;;;11.20;4.40;;;6.50;91.20;;;;;;4144877;28;20084;-69
2023/03/31 00:43:35;;;;;;;8.87;4.70;;;6.50;91.60;;;;;;4145213;28;20037;-62
2023/03/31 00:45:37;;;;;;;10.60;4.40;;;6.40;92.40;;;;;;4145855;28;20096;-62
2023/03/31 00:47:50;;;;;;;9.07;4.83;;;6.30;93.60;;;;;;4145015;28;20487;-60
2023/03/31 00:49:55;;;;;;;6.43;4.13;;;6.20;95.00;;;;;;4144057;28;20077;-60
2023/03/31 00:52:21;;;;;;;7.93;4.33;;;6.10;96.20;;;;;;4145124;28;20809;-62
2023/03/31 00:54:25;;;;;;;9.00;4.67;;;6.00;97.00;;;;;;4143892;28;20042;-61
2023/03/31 00:56:32;;;;;;;6.60;4.17;;;6.00;97.40;;;;;;4144728;28;20034;-61
2023/03/31 00:58:33;;;;;;;8.37;4.60;;;5.90;97.90;;;;;;4143989;28;20080;-61
2023/03/31 01:00:34;;;;;;;7.30;3.73;;;5.90;99.80;;;;;;4143365;28;20042;-62
2023/03/31 01:02:40;;;;;;;8.47;4.30;;;5.90;98.90;;;;;;4144227;28;20097;-67
2023/03/31 01:04:49;;;;;;;8.40;4.50;;;5.90;99.40;;;;;;4145412;28;20030;-62
2023/03/31 01:07:17;;;;;;;12.40;4.67;;;5.80;99.90;;;;;;4143951;28;20287;-67
2023/03/31 01:09:19;;;;;;;10.00;5.07;;;5.80;99.90;;;;;;4144406;28;20878;-65
2023/03/31 01:11:23;;;;;;;7.93;4.33;;;5.80;99.90;;;;;;4144302;28;20276;-63
2023/03/31 01:13:26;;;;;;;8.30;4.53;;;5.80;99.90;;;;;;4144986;28;20034;-68
2023/03/31 01:15:27;;;;;;;9.10;4.60;;;5.80;99.90;;;;;;4143927;28;20081;-63
2023/03/31 01:17:29;;;;;;;8.37;4.40;;;5.70;99.90;;;;;;4146880;28;20352;-62
2023/03/31 01:19:50;;;;;;;10.03;4.33;;;5.70;99.90;;;;;;4146403;28;20271;-61
2023/03/31 01:22:10;;;;;;;7.83;4.80;;;5.70;99.90;;;;;;4148314;28;20340;-62
2023/03/31 01:24:38;;;;;;;8.90;4.87;;;5.60;99.90;;;;;;4160514;28;20274;-61
2023/03/31 01:27:03;;;;;;;9.30;5.20;;;5.60;99.90;;;;;;4150881;28;20364;-62
2023/03/31 01:29:10;;;;;;;8.43;4.50;;;5.50;99.90;;;;;;4160436;28;20682;-62
2023/03/31 01:31:40;;;;;;;7.30;4.50;;;5.50;99.90;;;;;;4158867;28;20329;-63
2023/03/31 01:34:15;;;;;;;11.55;4.43;;;5.40;99.90;;;;;;4156482;28;20681;-63
2023/03/31 01:36:31;;;;;;;7.90;4.80;;;5.40;99.90;;;;;;4143882;28;20038;-64
2023/03/31 01:38:50;;;;;;;8.13;4.63;;;5.40;99.90;;;;;;4144132;28;20306;-61
2023/03/31 01:41:29;;;;;;;8.10;4.80;;;5.40;99.90;;;;;;4144099;28;20314;-61
2023/03/31 01:43:47;;;;;;;13.20;5.20;;;5.40;99.90;;;;;;4144325;28;20256;-62
2023/03/31 01:45:59;;;;;;;10.93;5.37;;;5.40;99.90;;;;;;4143416;28;20326;-67
2023/03/31 01:48:22;;;;;;;7.17;4.67;;;5.40;99.90;;;;;;4144289;28;20775;-65
2023/03/31 01:50:29;;;;;;;7.80;4.17;;;5.40;99.90;;;;;;4143568;28;20279;-65
2023/03/31 01:52:54;;;;;;;11.37;4.80;;;5.40;99.90;;;;;;4144174;28;20279;-62
2023/03/31 01:55:23;;;;;;;9.77;5.40;;;5.40;99.90;;;;;;4143178;28;20275;-62
2023/03/31 01:57:44;;;;;;;9.80;4.77;;;5.40;99.90;;;;;;4143954;28;20284;-62
2023/03/31 02:00:07;;;;;;;9.53;4.70;;;5.40;99.90;;;;;;4144057;28;20271;-67
2023/03/31 02:02:16;;;;;;;9.10;4.73;;;5.40;99.90;;;;;;4143609;28;20667;-67
2023/03/31 02:04:25;;;;;;;8.90;4.93;;;5.40;99.90;;;;;;4160371;28;20270;-63
2023/03/31 02:06:31;;;;;;;9.73;5.50;;;5.40;99.90;;;;;;4150832;28;20264;-63
2023/03/31 02:08:42;;;;;;;11.37;5.37;;;5.30;99.90;;;;;;4143705;28;20409;-68
2023/03/31 02:10:45;;;;;;;11.77;4.90;;;5.30;99.90;;;;;;4143800;28;20263;-62
2023/03/31 02:12:48;;;;;;;13.17;5.33;;;5.30;99.90;;;;;;4143855;28;20267;-62
2023/03/31 02:14:53;;;;;;;7.67;5.37;;;5.30;99.90;;;;;;4143449;28;20259;-69
2023/03/31 02:16:58;;;;;;;9.13;4.73;;;5.30;99.90;;;;;;4143637;28;20279;-65
2023/03/31 02:19:02;;;;;;;9.53;5.50;;;5.30;99.90;;;;;;4143812;28;20605;-64
2023/03/31 02:21:06;;;;;;;11.67;5.60;;;5.30;99.90;;;;;;4145096;28;20268;-63
2023/03/31 02:23:11;;;;;;;9.63;5.40;;;5.30;99.90;;;;;;4145960;28;20305;-63
2023/03/31 02:25:16;;;;;;;8.50;4.60;;;5.30;99.90;;;;;;4159372;28;20271;-65
2023/03/31 02:27:37;;;;;;;8.03;5.13;;;5.30;99.90;;;;;;4159906;28;20768;-63
2023/03/31 02:29:39;;;;;;;8.33;5.20;;;5.30;99.90;;;;;;4159700;28;20330;-65
2023/03/31 02:32:12;;;;;;;8.10;5.00;;;5.20;99.90;;;;;;4157627;28;20286;-65
2023/03/31 02:34:13;;;;;;;10.93;5.87;;;5.20;99.90;;;;;;4119881;28;20799;-62
2023/03/31 02:36:15;;;;;;;8.30;5.57;;;5.30;99.90;;;;;;4144591;28;20275;-66
2023/03/31 02:38:16;;;;;;;10.40;5.97;;;5.30;99.90;;;;;;4149842;28;20274;-63
2023/03/31 02:40:20;;;;;;;12.37;5.17;;;5.20;99.90;;;;;;4160202;28;20271;-70
2023/03/31 02:42:22;;;;;;;9.57;5.80;;;5.20;99.90;;;;;;4158201;28;20662;-70
2023/03/31 02:44:23;;;;;;;6.97;4.53;;;5.20;99.90;;;;;;4160062;28;20527;-69
2023/03/31 02:46:26;;;;;;;7.80;4.93;;;5.30;99.90;;;;;;4159111;28;20266;-66
2023/03/31 02:48:36;;;;;;;12.53;7.20;;;5.30;99.90;;;;;;4160493;28;20352;-65
2023/03/31 02:51:07;;;;;;;9.10;5.50;;;5.20;99.90;;;;;;4162815;28;20251;-66
2023/03/31 02:53:19;;;;;;;7.87;4.83;;;5.20;99.90;;;;;;4163443;28;20037;-66
2023/03/31 02:55:26;;;;;;;7.63;4.80;;;5.30;99.90;;;;;;4156789;28;20333;-69
2023/03/31 02:57:31;;;;;;;6.43;4.30;;;5.20;99.90;;;;;;4146883;28;20680;-71
2023/03/31 02:59:45;;;;;;;8.77;4.67;;;5.20;99.90;;;;;;4146255;28;20263;-69
2023/03/31 03:02:06;;;;;;;7.53;4.87;;;5.20;99.90;;;;;;4146782;28;20284;-63
2023/03/31 03:04:37;;;;;;;9.53;5.37;;;5.20;99.90;;;;;;4146590;28;20306;-64
2023/03/31 03:07:02;;;;;;;8.27;4.60;;;5.20;99.90;;;;;;4146382;28;20256;-67
2023/03/31 03:09:16;;;;;;;10.63;5.23;;;5.10;99.90;;;;;;4144643;28;20322;-67
2023/03/31 03:11:54;;;;;;;9.03;5.80;;;5.10;99.90;;;;;;4146422;28;20271;-69
2023/03/31 03:14:16;;;;;;;13.03;5.97;;;5.10;99.90;;;;;;4146402;28;20390;-64
2023/03/31 03:16:32;;;;;;;13.13;7.37;;;5.00;99.90;;;;;;4159244;28;20275;-62
2023/03/31 03:18:34;;;;;;;12.20;7.10;;;5.00;99.90;;;;;;4163001;28;20697;-66
2023/03/31 03:20:35;;;;;;;14.40;7.63;;;5.00;99.90;;;;;;4161952;28;20301;-67
2023/03/31 03:22:37;;;;;;;17.90;8.40;;;4.90;99.90;;;;;;4160329;28;20406;-69
2023/03/31 03:24:38;;;;;;;14.50;6.87;;;4.90;99.90;;;;;;4157433;28;20685;-62
2023/03/31 03:26:40;;;;;;;14.07;7.00;;;4.80;99.90;;;;;;4160860;28;20279;-61
2023/03/31 03:28:41;;;;;;;11.70;6.47;;;4.80;99.90;;;;;;4162008;28;20287;-68
2023/03/31 03:30:42;;;;;;;14.13;6.53;;;4.70;99.90;;;;;;4162459;28;20313;-69
2023/03/31 03:32:43;;;;;;;19.50;7.33;;;4.70;99.90;;;;;;4160733;28;20337;-62
2023/03/31 03:34:44;;;;;;;14.97;6.47;;;4.70;99.90;;;;;;4162136;28;20795;-62
2023/03/31 03:36:46;;;;;;;12.10;6.23;;;4.60;99.90;;;;;;4162106;28;20600;-67
2023/03/31 03:38:47;;;;;;;9.30;5.37;;;4.60;99.90;;;;;;4162101;28;20289;-62
2023/03/31 03:40:52;;;;;;;13.87;6.37;;;4.60;99.90;;;;;;4162458;28;20324;-68
2023/03/31 03:42:54;;;;;;;9.67;6.17;;;4.60;99.90;;;;;;4161747;28;20263;-62
2023/03/31 03:44:55;;;;;;;12.77;5.97;;;4.60;99.90;;;;;;4157576;28;20275;-64
2023/03/31 03:46:56;;;;;;;10.40;6.30;;;4.60;99.90;;;;;;4145421;28;20287;-66
2023/03/31 03:48:57;;;;;;;13.73;5.67;;;4.60;99.90;;;;;;4145806;28;20271;-66
2023/03/31 03:51:00;;;;;;;10.47;6.13;;;4.60;99.90;;;;;;4145047;28;20321;-62
2023/03/31 03:53:01;;;;;;;13.13;6.57;;;4.60;99.90;;;;;;4145457;28;20267;-66
2023/03/31 03:55:02;;;;;;;11.97;6.47;;;4.60;99.90;;;;;;4148913;28;20267;-63
2023/03/31 03:57:03;;;;;;;9.33;5.83;;;4.60;99.90;;;;;;4145699;28;20317;-61
2023/03/31 03:59:05;;;;;;;10.03;6.07;;;4.60;99.90;;;;;;4146519;28;20260;-61
2023/03/31 04:01:06;;;;;;;14.13;6.73;;;4.60;99.90;;;;;;4146524;28;20663;-61
2023/03/31 04:03:07;;;;;;;9.80;5.63;;;4.60;99.90;;;;;;4146124;28;20271;-61
2023/03/31 04:05:08;;;;;;;38.17;21.80;;;4.60;99.90;;;;;;4151728;28;20293;-61
2023/03/31 04:07:10;;;;;;;14.07;6.67;;;4.60;99.90;;;;;;4156362;28;20287;-60
2023/03/31 04:09:11;;;;;;;11.53;6.07;;;4.60;99.90;;;;;;4146324;28;20295;-61
2023/03/31 04:11:16;;;;;;;12.90;6.77;;;4.60;99.90;;;;;;4144704;28;20271;-62
2023/03/31 04:13:18;;;;;;;9.57;5.83;;;4.60;99.90;;;;;;4142312;28;20264;-62
2023/03/31 04:15:19;;;;;;;12.90;6.80;;;4.60;99.90;;;;;;4144421;28;20283;-62
2023/03/31 04:17:31;;;;;;;12.63;6.30;;;4.60;99.90;;;;;;4144112;28;20271;-61
2023/03/31 04:19:32;;;;;;;10.67;6.90;;;4.60;99.90;;;;;;4139910;28;20295;-62
2023/03/31 04:21:33;;;;;;;13.87;7.13;;;4.60;99.90;;;;;;4146859;28;20276;-62
2023/03/31 04:23:45;;;;;;;13.33;7.23;;;4.50;99.90;;;;;;4150386;28;20357;-63
2023/03/31 04:25:48;;;;;;;12.67;7.37;;;4.60;99.90;;;;;;4143529;28;20342;-68
2023/03/31 04:27:53;;;;;;;15.70;7.20;;;4.50;99.90;;;;;;4152894;28;20302;-62
2023/03/31 04:29:54;;;;;;;15.07;7.93;;;4.50;99.90;;;;;;4146626;28;20760;-63
2023/03/31 04:31:57;;;;;;;14.03;8.37;;;4.40;99.90;;;;;;4148326;28;20735;-61
2023/03/31 04:34:05;;;;;;;10.80;6.97;;;4.40;99.90;;;;;;4150159;28;20671;-62
2023/03/31 04:36:19;;;;;;;11.20;6.10;;;4.40;99.90;;;;;;4143289;28;20310;-68
2023/03/31 04:38:25;;;;;;;12.57;6.40;;;4.40;99.90;;;;;;4144247;28;20268;-60
2023/03/31 04:40:27;;;;;;;12.03;7.37;;;4.40;99.90;;;;;;4144296;28;20295;-63
2023/03/31 04:42:28;;;;;;;13.63;6.70;;;4.50;99.90;;;;;;4144205;28;20334;-66
2023/03/31 04:44:29;;;;;;;11.53;6.87;;;4.50;99.90;;;;;;4144158;28;20678;-62
2023/03/31 04:46:32;;;;;;;12.37;7.77;;;4.50;99.90;;;;;;4143525;28;20279;-61
2023/03/31 04:48:33;;;;;;;11.63;6.57;;;4.50;99.90;;;;;;4144708;28;20333;-61
2023/03/31 04:50:35;;;;;;;11.90;7.20;;;4.60;99.90;;;;;;4143752;28;20291;-61
2023/03/31 04:52:37;;;;;;;13.03;7.50;;;4.60;99.90;;;;;;4143645;28;21458;-60
2023/03/31 04:54:38;;;;;;;15.93;8.07;;;4.60;99.90;;;;;;4146403;28;20333;-66
2023/03/31 04:56:39;;;;;;;14.33;8.67;;;4.60;99.90;;;;;;4143187;28;20293;-60
2023/03/31 04:58:41;;;;;;;13.73;7.97;;;4.60;99.90;;;;;;4143900;28;20279;-65
2023/03/31 05:00:42;;;;;;;13.97;8.27;;;4.50;99.90;;;;;;4141160;28;20815;-69
2023/03/31 05:02:43;;;;;;;15.87;8.90;;;4.50;99.90;;;;;;4144067;28;20306;-62
2023/03/31 05:04:45;;;;;;;13.10;7.80;;;4.40;99.90;;;;;;4142165;28;20857;-63
2023/03/31 05:06:46;;;;;;;15.53;8.67;;;4.40;99.90;;;;;;4143784;28;20676;-66
2023/03/31 05:08:47;;;;;;;14.37;8.30;;;4.40;99.90;;;;;;4100857;28;1237148;-64
2023/03/31 05:10:48;;;;;;;13.43;7.83;;;4.30;99.90;;;;;;4143828;28;20068;-69
2023/03/31 05:12:49;;;;;;;13.27;6.70;;;4.40;99.90;;;;;;4144234;28;20602;-63
2023/03/31 05:14:51;;;;;;;11.40;7.23;;;4.40;99.90;;;;;;4144119;28;20743;-65
2023/03/31 05:16:56;;;;;;;15.20;8.10;;;4.40;99.90;;;;;;4144140;28;20279;-64
2023/03/31 05:18:57;;;;;;;14.90;8.07;;;4.40;99.90;;;;;;4143642;28;20283;-62
2023/03/31 05:21:11;;;;;;;16.07;8.60;;;4.30;99.90;;;;;;4143959;28;20271;-66
2023/03/31 05:23:13;;;;;;;13.73;8.27;;;4.40;99.90;;;;;;4143743;28;20330;-67
2023/03/31 05:25:17;;;;;;;14.70;8.00;;;4.40;99.90;;;;;;4144148;28;20267;-68
2023/03/31 05:27:20;;;;;;;11.50;6.47;;;4.40;99.90;;;;;;4143880;28;20326;-67
2023/03/31 05:29:22;;;;;;;11.93;7.23;;;4.30;99.90;;;;;;4144198;28;20593;-65
2023/03/31 05:31:23;;;;;;;12.40;7.20;;;4.20;99.90;;;;;;4143645;28;20663;-66
2023/03/31 05:33:25;;;;;;;10.47;6.37;;;4.20;99.90;;;;;;4144037;28;20628;-62
2023/03/31 05:35:26;;;;;;;10.63;6.63;;;4.20;99.90;;;;;;4143628;28;20263;-63
2023/03/31 05:37:27;;;;;;;15.37;7.17;;;4.20;99.90;;;;;;4144007;28;20322;-62
2023/03/31 05:39:31;;;;;;;13.27;7.37;;;4.20;99.90;;;;;;4143509;28;20268;-66
2023/03/31 05:41:33;;;;;;;13.83;7.97;;;4.20;99.90;;;;;;4144426;28;20314;-63
2023/03/31 05:43:35;;;;;;;15.07;8.00;;;4.20;99.90;;;;;;4143480;28;20341;-62
2023/03/31 05:45:36;;;;;;;11.03;6.77;;;4.30;99.90;;;;;;4144167;28;20263;-64
2023/03/31 05:47:37;;;;;;;12.40;7.43;;;4.20;99.90;;;;;;4143640;28;20255;-61
2023/03/31 05:49:38;;;;;;;11.90;7.57;;;4.30;99.90;;;;;;4143515;28;20259;-62
2023/03/31 05:51:39;;;;;;;11.13;6.73;;;4.30;99.90;;;;;;4143699;28;20260;-66
2023/03/31 05:53:41;;;;;;;11.33;6.90;;;4.30;99.90;;;;;;4143859;28;20664;-65
2023/03/31 05:55:42;;;;;;;12.27;6.23;;;4.30;99.90;;;;;;4143820;28;20263;-67
2023/03/31 05:57:43;;;;;;;12.10;7.43;;;4.40;99.90;;;;;;4142557;28;20259;-70
2023/03/31 05:59:45;;;;;;;13.40;8.70;;;4.40;99.90;;;;;;4143805;28;20271;-63
2023/03/31 06:01:46;;;;;;;17.20;9.37;;;4.40;99.90;;;;;;4143210;28;20770;-68
2023/03/31 06:03:48;;;;;;;13.77;8.53;;;4.50;99.90;;;;;;4144061;28;20275;-63
2023/03/31 06:05:49;;;;;;;14.60;8.13;;;4.50;99.90;;;;;;4143564;28;20275;-68
2023/03/31 06:07:50;;;;;;;16.37;8.77;;;4.50;99.90;;;;;;4143626;28;20299;-64
2023/03/31 06:09:51;;;;;;;18.70;9.53;;;4.60;99.90;;;;;;4143091;28;20287;-65
2023/03/31 06:11:52;;;;;;;17.10;8.03;;;4.60;99.90;;;;;;4144129;28;20279;-63
2023/03/31 06:13:53;;;;;;;13.07;7.90;;;4.70;99.90;;;;;;4142983;28;20275;-67
2023/03/31 06:15:56;;;;;;;12.77;7.57;;;4.70;99.90;;;;;;4143542;28;20333;-68
2023/03/31 06:17:57;;;;;;;15.43;9.27;;;4.80;99.90;;;;;;4143505;28;20325;-64
2023/03/31 06:19:58;;;;;;;25.47;13.57;;;4.80;99.90;;;;;;4143442;28;20703;-62
2023/03/31 06:22:00;;;;;;;21.17;11.97;;;4.80;99.90;;;;;;4142710;28;20263;-62
2023/03/31 06:24:01;;;;;;;12.77;8.30;;;4.80;99.90;;;;;;4143123;28;20267;-62
2023/03/31 06:26:07;;;;;;;11.20;7.10;;;4.80;99.90;;;;;;4143596;28;20318;-68
2023/03/31 06:28:08;;;;;;;12.03;7.77;;;4.70;99.90;;;;;;4141592;28;20885;-64
2023/03/31 06:30:10;;;;;;;14.97;7.47;;;4.70;99.90;;;;;;4142757;28;20313;-62
2023/03/31 06:32:11;;;;;;;16.37;8.50;;;4.60;99.90;;;;;;4143210;28;20671;-67
2023/03/31 06:34:12;;;;;;;12.23;7.63;;;4.70;99.90;;;;;;4143904;28;20275;-69
2023/03/31 06:36:16;;;;;;;12.83;7.70;;;4.70;99.90;;;;;;4143215;28;20294;-67
2023/03/31 06:38:17;;;;;;;12.27;7.40;;;4.70;99.90;;;;;;4143868;28;20271;-62
2023/03/31 06:40:18;;;;;;;10.60;7.17;;;4.60;99.90;;;;;;4142877;28;20830;-62
2023/03/31 06:42:19;;;;;;;13.23;7.53;;;4.60;99.90;;;;;;4142087;28;20268;-62
2023/03/31 06:44:22;;;;;;;12.43;7.37;;;4.60;99.90;;;;;;4142675;28;20311;-61
2023/03/31 06:46:23;;;;;;;10.87;7.13;;;4.60;99.90;;;;;;4143283;28;20271;-61
2023/03/31 06:48:25;;;;;;;16.23;8.43;;;4.60;99.90;;;;;;4142819;28;20338;-67
2023/03/31 06:50:26;;;;;;;13.40;8.10;;;4.70;99.90;;;;;;4143556;28;20252;-69
2023/03/31 06:52:27;;;;;;;13.07;7.83;;;4.80;99.90;;;;;;4142891;28;20279;-64
2023/03/31 06:54:28;;;;;;;13.47;7.67;;;4.80;99.90;;;;;;4143349;28;20263;-62
2023/03/31 06:56:30;;;;;;;13.07;7.47;;;4.80;99.90;;;;;;4143041;28;20659;-64
2023/03/31 06:58:31;;;;;;;13.03;7.93;;;4.80;99.90;;;;;;4143125;28;20321;-67
2023/03/31 07:00:33;;;;;;;11.33;7.37;;;4.80;99.90;;;;;;4143118;28;20271;-61
2023/03/31 07:02:35;;;;;;;15.27;7.83;;;4.80;99.90;;;;;;4143070;28;20322;-66
2023/03/31 07:04:36;;;;;;;11.87;7.13;;;4.80;99.90;;;;;;4143368;28;20271;-69
2023/03/31 07:06:37;;;;;;;13.67;7.37;;;4.80;99.90;;;;;;4142812;28;20267;-65
2023/03/31 07:08:39;;;;;;;10.40;6.77;;;4.90;99.90;;;;;;4142979;28;20393;-66
2023/03/31 07:10:40;;;;;;;13.07;8.37;;;4.90;99.90;;;;;;4142839;28;20264;-62
2023/03/31 07:12:41;;;;;;;16.03;7.87;;;5.00;99.90;;;;;;4143569;28;20272;-66
2023/03/31 07:14:42;;;;;;;17.10;8.93;;;5.00;99.90;;;;;;4142478;28;20728;-62
2023/03/31 07:16:43;;;;;;;14.47;8.47;;;5.10;99.90;;;;;;4143101;28;20330;-61
2023/03/31 07:18:44;;;;;;;15.77;9.83;;;5.10;99.90;;;;;;4141938;28;20275;-69
2023/03/31 07:20:49;;;;;;;14.07;8.47;;;5.00;99.90;;;;;;4142910;28;20667;-69
2023/03/31 07:22:50;;;;;;;13.77;8.60;;;5.00;99.90;;;;;;4142826;28;20354;-63
2023/03/31 07:24:51;;;;;;;19.57;8.87;;;5.00;99.90;;;;;;4141705;28;20726;-66
2023/03/31 07:26:52;;;;;;;15.67;9.07;;;5.10;99.90;;;;;;4143207;28;20330;-69
2023/03/31 07:28:56;;;;;;;17.20;9.70;;;5.10;99.90;;;;;;4142973;28;20284;-67
2023/03/31 07:30:57;;;;;;;18.43;9.90;;;5.00;99.90;;;;;;4142948;28;20740;-69
2023/03/31 07:32:59;;;;;;;18.83;11.30;;;5.00;99.90;;;;;;4142804;28;20822;-71
2023/03/31 07:35:00;;;;;;;18.07;10.80;;;5.00;99.90;;;;;;4146255;28;20659;-66
2023/03/31 07:37:01;;;;;;;19.33;12.37;;;5.10;99.90;;;;;;4145642;28;20725;-69
2023/03/31 07:39:04;;;;;;;20.60;12.10;;;5.10;99.90;;;;;;4146056;28;20089;-63
2023/03/31 07:41:10;;;;;;;23.57;11.60;;;5.20;99.90;;;;;;4144987;28;20334;-65
2023/03/31 07:43:12;;;;;;;25.53;12.83;;;5.20;99.90;;;;;;4145427;28;20683;-69
2023/03/31 07:45:14;;;;;;;20.90;13.70;;;5.20;99.90;;;;;;4144576;28;20329;-63
2023/03/31 07:47:16;;;;;;;23.43;13.00;;;5.20;99.90;;;;;;4145355;28;20760;-63
2023/03/31 07:49:17;;;;;;;20.70;12.73;;;5.20;99.90;;;;;;4145316;28;20283;-62
2023/03/31 07:51:20;;;;;;;23.77;12.00;;;5.30;99.90;;;;;;4145645;28;20279;-63
2023/03/31 07:53:21;;;;;;;19.77;12.00;;;5.30;99.90;;;;;;4145035;28;20271;-62
2023/03/31 07:55:22;;;;;;;20.23;12.37;;;5.30;99.90;;;;;;4145235;28;20268;-62
2023/03/31 07:57:24;;;;;;;28.23;15.73;;;5.30;99.90;;;;;;4145338;28;20172;-66
2023/03/31 07:59:25;;;;;;;26.97;12.63;;;5.40;99.90;;;;;;4145392;28;20263;-62
2023/03/31 08:01:27;;;;;;;21.63;12.27;;;5.40;99.90;;;;;;4145399;28;20267;-62
2023/03/31 08:03:28;;;;;;;23.07;14.07;;;5.40;99.90;;;;;;4145419;28;20271;-69
2023/03/31 08:05:30;;;;;;;19.87;11.63;;;5.40;99.90;;;;;;4145644;28;20322;-66
2023/03/31 08:07:34;;;;;;;22.00;13.00;;;5.40;99.90;;;;;;4143345;28;20280;-63
2023/03/31 08:09:36;;;;;;;22.97;12.63;;;5.40;99.90;;;;;;4145325;28;20287;-61
2023/03/31 08:11:37;;;;;;;16.07;10.87;;;5.40;99.90;;;;;;4145051;28;20325;-69
2023/03/31 08:13:38;;;;;;;17.73;10.63;;;5.40;99.90;;;;;;4145378;28;20272;-62
2023/03/31 08:15:39;;;;;;;19.57;10.37;;;5.30;99.90;;;;;;4144801;28;20275;-62
2023/03/31 08:17:40;;;;;;;19.40;10.37;;;5.30;99.90;;;;;;4145593;28;20330;-62
2023/03/31 08:19:42;;;;;;;17.33;9.37;;;5.30;99.90;;;;;;4144741;28;20322;-62
2023/03/31 08:21:43;;;;;;;16.57;10.87;;;5.30;99.90;;;;;;4145411;28;20267;-62
2023/03/31 08:23:44;;;;;;;17.37;9.90;;;5.30;99.90;;;;;;4144732;28;20255;-61
2023/03/31 08:25:46;;;;;;;21.27;11.20;;;5.40;99.90;;;;;;4145172;28;20333;-63
2023/03/31 08:27:50;;;;;;;19.80;9.90;;;5.40;99.90;;;;;;4144339;28;20760;-64
2023/03/31 08:29:51;;;;;;;17.00;10.57;;;5.30;99.90;;;;;;4143515;28;20407;-63
2023/03/31 08:31:53;;;;;;;20.30;11.40;;;5.30;99.90;;;;;;4145039;28;20333;-67
2023/03/31 08:33:56;;;;;;;18.00;11.50;;;5.40;99.90;;;;;;4144679;28;20264;-62
2023/03/31 08:36:02;;;;;;;20.87;13.20;;;5.40;99.90;;;;;;4145065;28;20259;-61
2023/03/31 08:38:04;;;;;;;20.97;12.60;;;5.40;99.90;;;;;;4144540;28;20683;-62
2023/03/31 08:40:08;;;;;;;21.97;13.47;;;5.40;99.90;;;;;;4144510;28;20334;-63
2023/03/31 08:42:19;;;;;;;21.67;13.57;;;5.50;99.90;;;;;;4144020;28;20683;-62
2023/03/31 08:44:31;;;;;;;19.45;13.32;;;5.60;99.90;;;;;;4144922;28;20272;-62
2023/03/31 08:46:34;;;;;;;26.03;13.97;;;5.60;99.90;;;;;;4144070;28;20038;-62
2023/03/31 08:48:44;;;;;;;23.37;13.43;;;5.70;99.90;;;;;;4143033;28;20287;-63
2023/03/31 08:50:51;;;;;;;23.37;14.90;;;5.80;99.90;;;;;;4144327;28;20042;-63
2023/03/31 08:53:02;;;;;;;20.57;13.70;;;6.00;99.90;;;;;;4144291;28;20331;-64
2023/03/31 08:55:12;;;;;;;21.17;13.80;;;6.20;99.90;;;;;;4144444;28;20264;-61
2023/03/31 08:57:21;;;;;;;23.58;12.45;;;6.40;99.90;;;;;;4144139;28;20279;-62
2023/03/31 08:59:31;;;;;;;22.20;14.17;;;6.40;99.90;;;;;;4144310;28;20022;-64
2023/03/31 09:01:44;;;;;;;20.75;12.57;;;6.60;99.90;;;;;;4144259;28;20267;-62
2023/03/31 09:04:04;;;;;;;22.43;12.53;;;6.80;99.90;;;;;;4144322;28;20133;-64
2023/03/31 09:06:36;;;;;;;22.00;12.73;;;7.00;99.90;;;;;;4144680;28;20310;-62
2023/03/31 09:08:41;;;;;;;19.90;12.63;;;7.10;99.90;;;;;;4143929;28;20307;-63
2023/03/31 09:11:19;;;;;;;17.23;13.03;;;7.20;99.90;;;;;;4144256;28;20271;-63
2023/03/31 09:13:43;;;;;;;25.13;13.27;;;7.20;99.90;;;;;;4144137;28;20109;-62
2023/03/31 09:15:49;;;;;;;18.37;12.07;;;7.30;99.90;;;;;;4143764;28;20030;-61
2023/03/31 09:17:53;;;;;;;18.17;12.57;;;7.30;99.90;;;;;;4144422;28;20034;-64
2023/03/31 09:20:00;;;;;;;18.30;12.83;;;7.20;99.90;;;;;;4143487;28;20038;-65
2023/03/31 09:22:08;;;;;;;22.00;14.47;;;7.20;99.90;;;;;;4143073;28;20099;-63
2023/03/31 09:24:32;;;;;;;22.57;14.13;;;7.20;99.90;;;;;;4142180;28;20038;-61
2023/03/31 09:26:37;;;;;;;21.37;15.10;;;7.20;99.90;;;;;;4143996;28;20100;-63
2023/03/31 09:28:39;;;;;;;24.40;15.47;;;7.30;99.90;;;;;;4143721;28;20125;-63
2023/03/31 09:30:41;;;;;;;25.60;16.93;;;7.30;99.90;;;;;;4143828;28;20042;-66
2023/03/31 09:32:44;;;;;;;22.53;15.60;;;7.30;99.90;;;;;;4143816;28;20024;-62
2023/03/31 09:34:50;;;;;;;23.70;15.83;;;7.30;99.90;;;;;;4143672;28;20180;-62
2023/03/31 09:36:51;;;;;;;21.77;14.30;;;7.20;99.90;;;;;;4143919;28;20080;-63
2023/03/31 09:38:52;;;;;;;21.60;13.83;;;7.30;99.90;;;;;;4143666;28;20686;-61
2023/03/31 09:40:55;;;;;;;26.03;15.50;;;7.40;99.90;;;;;;4143853;28;20115;-62
2023/03/31 09:43:26;;;;;;;24.83;15.20;;;7.50;99.90;;;;;;4143109;28;20038;-62
2023/03/31 09:45:29;;;;;;;27.17;17.03;;;7.60;99.90;;;;;;4143072;28;20045;-63
2023/03/31 09:47:41;;;;;;;21.63;14.47;;;7.60;99.90;;;;;;4143739;28;20026;-63
2023/03/31 09:49:45;;;;;;;23.53;14.63;;;7.70;99.90;;;;;;4143730;28;20486;-62
2023/03/31 09:51:51;;;;;;;18.90;13.63;;;7.80;99.90;;;;;;4143432;28;20030;-63
2023/03/31 09:54:00;;;;;;;20.37;12.80;;;7.90;99.90;;;;;;4143854;28;20021;-63
2023/03/31 09:56:04;;;;;;;15.67;11.10;;;8.20;99.90;;;;;;4143003;28;20050;-63
2023/03/31 09:58:10;;;;;;;16.33;10.83;;;8.30;99.90;;;;;;4143714;28;20430;-62
2023/03/31 10:00:12;;;;;;;21.87;11.50;;;8.30;99.90;;;;;;4142802;28;20042;-64
2023/03/31 10:02:36;;;;;;;19.37;11.10;;;8.40;99.90;;;;;;4143558;28;20022;-62
2023/03/31 10:04:45;;;;;;;17.37;12.00;;;8.50;99.90;;;;;;4143683;28;20108;-66
2023/03/31 10:06:47;;;;;;;19.67;12.00;;;8.50;99.90;;;;;;4143557;28;20084;-66
2023/03/31 10:08:58;;;;;;;21.40;11.17;;;8.60;99.90;;;;;;4143095;28;20058;-68
2023/03/31 10:11:02;;;;;;;21.42;11.98;;;8.70;99.90;;;;;;4143537;28;20430;-62
2023/03/31 10:13:09;;;;;;;16.10;11.47;;;8.70;99.90;;;;;;4143084;28;20038;-64
2023/03/31 10:15:20;;;;;;;18.97;11.17;;;8.80;99.90;;;;;;4143090;28;20081;-65
2023/03/31 10:17:23;;;;;;;16.83;11.52;;;8.80;99.90;;;;;;4143310;28;20045;-67
2023/03/31 10:19:30;;;;;;;17.07;12.13;;;8.80;99.90;;;;;;4143249;28;20080;-67
2023/03/31 10:21:35;;;;;;;17.07;10.50;;;8.90;99.90;;;;;;4142919;28;20018;-66
2023/03/31 10:23:36;;;;;;;16.33;11.23;;;8.90;99.90;;;;;;4143553;28;20030;-67
2023/03/31 10:25:39;;;;;;;14.50;10.67;;;9.00;99.90;;;;;;4142983;28;20084;-66
2023/03/31 10:27:41;;;;;;;15.97;11.50;;;9.00;99.90;;;;;;4143749;28;20022;-65
2023/03/31 10:29:42;;;;;;;16.87;10.27;;;9.00;99.90;;;;;;4142778;28;20465;-68
2023/03/31 10:31:43;;;;;;;15.93;10.67;;;8.80;99.90;;;;;;4143559;28;20030;-67
2023/03/31 10:33:47;;;;;;;12.67;9.07;;;8.70;99.90;;;;;;4142598;28;20030;-67
2023/03/31 10:35:54;;;;;;;18.73;10.77;;;8.50;99.90;;;;;;4143934;28;20092;-61
2023/03/31 10:38:05;;;;;;;16.07;11.13;;;8.60;99.90;;;;;;4141121;28;20076;-67
2023/03/31 10:40:23;;;;;;;18.37;10.07;;;8.70;99.90;;;;;;4143537;28;20421;-63
2023/03/31 10:42:26;;;;;;;16.17;10.07;;;8.80;99.90;;;;;;4142604;28;20034;-64
2023/03/31 10:44:32;;;;;;;17.93;10.27;;;8.90;99.90;;;;;;4143523;28;20026;-64
2023/03/31 10:47:01;;;;;;;15.67;9.50;;;9.00;99.90;;;;;;4142704;28;20425;-63
2023/03/31 10:49:22;;;;;;;16.80;10.17;;;9.10;99.90;;;;;;4142989;28;20108;-61
2023/03/31 10:51:26;;;;;;;17.35;9.50;;;9.30;99.90;;;;;;4142562;28;20287;-67
2023/03/31 10:53:28;;;;;;;15.20;9.60;;;9.30;99.90;;;;;;4143468;28;20116;-67